Time;durP1;ratioP1;P1;durP2;ratioP2;P2;SDS_P1;SDS_P2;PMS_P1;PMS_P2;Temp;Humidity;BMP_temperature;BMP_pressure;BME280_temperature;BME280_humidity;BME280_pressure;Samples;Min_cycle;Max_cycle;Signal;HPM_P1;HPM_P2
2022/08/24 00:01:55;;;;;;;12.27;6.70;;;;;;;21.00;100.00;101574.56;5049853;28;20080;-64
2022/08/24 00:04:25;;;;;;;10.32;6.93;;;;;;;20.88;100.00;101575.78;5052514;28;20052;-57
2022/08/24 00:06:55;;;;;;;11.30;6.45;;;;;;;20.82;100.00;101571.00;5053472;28;20053;-65
2022/08/24 00:09:23;;;;;;;9.27;5.95;;;;;;;20.89;100.00;101569.44;5052351;28;20037;-65
2022/08/24 00:11:51;;;;;;;9.63;6.10;;;;;;;20.79;100.00;101571.31;5051370;28;20082;-64
2022/08/24 00:14:19;;;;;;;9.77;5.95;;;;;;;20.74;100.00;101574.47;5052142;28;20067;-58
2022/08/24 00:16:47;;;;;;;10.32;6.38;;;;;;;20.83;100.00;101573.53;5050427;28;20053;-64
2022/08/24 00:19:17;;;;;;;11.10;6.00;;;;;;;20.73;100.00;101564.75;5053392;28;20072;-57
2022/08/24 00:21:47;;;;;;;8.38;5.75;;;;;;;20.68;100.00;101583.91;5053277;28;20048;-64
2022/08/24 00:24:15;;;;;;;10.63;5.93;;;;;;;20.69;100.00;101582.91;5052430;28;20052;-65
2022/08/24 00:26:44;;;;;;;10.05;5.82;;;;;;;20.66;100.00;101572.50;5050839;28;20037;-57
2022/08/24 00:29:13;;;;;;;12.77;6.53;;;;;;;20.56;100.00;101585.91;5051060;28;20056;-57
2022/08/24 00:31:41;;;;;;;12.93;6.97;;;;;;;20.62;100.00;101587.13;5049476;28;20595;-64
2022/08/24 00:34:12;;;;;;;10.27;6.22;;;;;;;20.53;100.00;101585.34;5051540;28;20057;-57
2022/08/24 00:36:40;;;;;;;9.57;5.95;;;;;;;20.50;100.00;101586.47;5051013;28;20061;-65
2022/08/24 00:39:10;;;;;;;12.32;7.15;;;;;;;20.46;100.00;101589.59;5053656;28;20049;-57
2022/08/24 00:41:41;;;;;;;10.00;6.07;;;;;;;20.51;100.00;101593.50;5053723;28;20446;-64
2022/08/24 00:44:10;;;;;;;11.68;6.35;;;;;;;20.53;100.00;101591.56;5053842;28;20472;-57
2022/08/24 00:46:48;;;;;;;9.35;6.95;;;;;;;20.41;100.00;101582.00;5053371;28;20056;-58
2022/08/24 00:49:23;;;;;;;11.30;7.35;;;;;;;20.43;100.00;101596.06;5051820;28;20526;-64
2022/08/24 00:51:57;;;;;;;12.10;7.22;;;;;;;20.36;100.00;101590.47;5050604;28;20044;-65
2022/08/24 00:54:30;;;;;;;10.55;6.90;;;;;;;20.32;100.00;101594.44;5051125;28;20496;-58
2022/08/24 00:57:02;;;;;;;10.77;7.30;;;;;;;20.29;100.00;101592.06;5051661;28;20512;-58
2022/08/24 00:59:34;;;;;;;11.23;7.78;;;;;;;20.25;100.00;101594.16;5051984;28;20148;-58
2022/08/24 01:02:05;;;;;;;10.43;7.70;;;;;;;20.25;100.00;101604.00;5049237;28;20049;-65
2022/08/24 01:04:48;;;;;;;11.90;8.38;;;;;;;20.21;100.00;101597.28;5053559;28;20071;-65
2022/08/24 01:07:16;;;;;;;11.32;7.60;;;;;;;20.18;100.00;101594.88;5052695;28;20098;-57
2022/08/24 01:09:46;;;;;;;9.77;6.75;;;;;;;20.21;100.00;101600.78;5050359;28;20072;-65
2022/08/24 01:12:16;;;;;;;14.70;7.57;;;;;;;20.11;100.00;101594.66;5049248;28;20076;-64
2022/08/24 01:14:45;;;;;;;11.77;8.25;;;;;;;20.14;100.00;101599.69;5051248;28;20053;-64
2022/08/24 01:20:09;;;;;;;14.00;8.10;;;;;;;20.06;100.00;101595.06;5052479;28;20051;-63
2022/08/24 01:22:49;;;;;;;9.05;7.03;;;;;;;20.07;100.00;101591.41;5053707;28;20053;-63
2022/08/24 01:25:20;;;;;;;13.25;7.85;;;;;;;20.06;100.00;101595.06;5053074;28;20075;-58
2022/08/24 01:27:50;;;;;;;12.20;8.77;;;;;;;20.01;100.00;101591.16;5051697;28;20053;-56
2022/08/24 01:30:19;;;;;;;14.50;9.85;;;;;;;19.91;100.00;101585.81;5053297;28;20132;-57
2022/08/24 01:33:00;;;;;;;13.27;9.07;;;;;;;19.96;100.00;101594.25;5051083;28;20480;-58
2022/08/24 01:35:30;;;;;;;12.63;8.73;;;;;;;19.99;100.00;101588.63;5050540;28;20049;-57
2022/08/24 01:38:06;;;;;;;13.82;9.57;;;;;;;19.93;100.00;101594.53;5050387;28;20099;-57
2022/08/24 01:40:38;;;;;;;16.13;9.73;;;;;;;19.86;100.00;101593.41;5051351;28;20056;-65
2022/08/24 01:43:07;;;;;;;13.05;8.38;;;;;;;19.90;100.00;101600.16;5051631;28;20068;-57
2022/08/24 01:45:36;;;;;;;13.27;9.45;;;;;;;19.91;100.00;101593.84;5053131;28;20420;-64
2022/08/24 01:48:04;;;;;;;11.73;9.18;;;;;;;19.77;100.00;101590.59;5050448;28;20044;-64
2022/08/24 01:50:33;;;;;;;12.50;8.77;;;;;;;19.80;100.00;101588.63;5050200;28;20071;-64
2022/08/24 01:53:05;;;;;;;12.70;9.65;;;;;;;19.81;100.00;101595.66;5049853;28;20055;-58
2022/08/24 01:55:34;;;;;;;11.77;8.88;;;;;;;19.77;100.00;101589.75;5049520;28;20033;-57
2022/08/24 01:58:05;;;;;;;11.75;8.07;;;;;;;19.75;100.00;101592.53;5051778;28;20053;-64
2022/08/24 02:00:35;;;;;;;14.15;8.27;;;;;;;19.74;100.00;101592.69;5052131;28;20140;-57
2022/08/24 02:03:04;;;;;;;13.65;8.27;;;;;;;19.71;100.00;101591.13;5049751;28;20063;-64
2022/08/24 02:05:33;;;;;;;14.02;9.05;;;;;;;19.71;100.00;101591.13;5048656;28;20045;-64
2022/08/24 02:08:01;;;;;;;14.18;9.27;;;;;;;19.70;100.00;101592.16;5049881;28;20527;-57
2022/08/24 02:10:29;;;;;;;14.57;10.00;;;;;;;19.58;100.00;101593.28;5049702;28;20041;-58
2022/08/24 02:12:58;;;;;;;14.60;9.88;;;;;;;19.58;100.00;101595.94;5049633;28;20049;-65
2022/08/24 02:15:31;;;;;;;14.02;8.57;;;;;;;19.62;100.00;101592.00;5051998;28;20071;-58
2022/08/24 02:18:00;;;;;;;10.63;8.57;;;;;;;19.59;100.00;101595.81;5049639;28;20059;-62
2022/08/24 02:20:29;;;;;;;12.07;8.77;;;;;;;19.58;100.00;101590.63;5049730;28;20056;-58
2022/08/24 02:22:57;;;;;;;11.80;8.13;;;;;;;19.55;100.00;101580.19;5049311;28;20044;-63
2022/08/24 02:25:28;;;;;;;11.10;8.10;;;;;;;19.50;100.00;101593.97;5051918;28;20052;-57
2022/08/24 02:27:58;;;;;;;14.27;9.07;;;;;;;19.52;100.00;101593.81;5051632;28;20044;-58
2022/08/24 02:30:29;;;;;;;10.52;8.80;;;;;;;19.48;100.00;101597.75;5047785;28;20174;-63
2022/08/24 02:32:57;;;;;;;11.65;8.35;;;;;;;19.43;100.00;101608.84;5049478;28;20045;-57
2022/08/24 02:35:29;;;;;;;11.55;8.98;;;;;;;19.46;100.00;101607.75;5049577;28;20045;-64
2022/08/24 02:37:57;;;;;;;12.32;8.15;;;;;;;19.41;100.00;101611.66;5051185;28;20049;-63
2022/08/24 02:40:26;;;;;;;13.00;8.75;;;;;;;19.41;100.00;101611.66;5050939;28;20523;-64
2022/08/24 02:42:55;;;;;;;11.13;8.52;;;;;;;19.39;100.00;101618.97;5049492;28;20495;-57
2022/08/24 02:45:23;;;;;;;10.38;8.27;;;;;;;19.35;100.00;101619.38;5047851;28;20049;-64
2022/08/24 02:47:52;;;;;;;12.57;9.07;;;;;;;19.27;100.00;101620.06;5049207;28;20052;-64
2022/08/24 02:50:21;;;;;;;12.60;8.57;;;;;;;19.31;100.00;101620.66;5051020;28;20055;-58
2022/08/24 02:52:49;;;;;;;10.52;8.40;;;;;;;19.34;100.00;101623.03;5055078;28;20545;-64
2022/08/24 02:55:19;;;;;;;12.65;8.20;;;;;;;19.34;100.00;101620.34;5053258;28;20053;-59
2022/08/24 02:57:49;;;;;;;11.40;8.32;;;;;;;19.36;100.00;101619.25;5053425;28;20045;-63
2022/08/24 03:00:20;;;;;;;12.13;8.70;;;;;;;19.28;100.00;101621.75;5051781;28;20049;-58
2022/08/24 03:02:48;;;;;;;11.48;8.90;;;;;;;19.25;100.00;101617.53;5053097;28;20396;-55
2022/08/24 03:05:18;;;;;;;11.95;8.77;;;;;;;19.22;100.00;101614.28;5051584;28;20416;-58
2022/08/24 03:07:46;;;;;;;14.57;9.10;;;;;;;19.16;100.00;101607.69;5052844;28;20496;-64
2022/08/24 03:10:15;;;;;;;12.93;9.25;;;;;;;19.18;100.00;101610.22;5052891;28;20106;-63
2022/08/24 03:12:44;;;;;;;13.15;8.68;;;;;;;19.10;100.00;101605.56;5053655;28;20064;-63
2022/08/24 03:15:13;;;;;;;12.60;8.40;;;;;;;19.15;100.00;101610.50;5051827;28;20056;-56
2022/08/24 03:17:41;;;;;;;14.85;8.98;;;;;;;19.09;100.00;101602.06;5053306;28;20135;-57
2022/08/24 03:20:14;;;;;;;12.25;10.18;;;;;;;19.05;100.00;101606.00;5052956;28;20095;-64
2022/08/24 03:22:45;;;;;;;;;;;;;;;19.07;100.00;101597.84;5054559;28;20049;-57
2022/08/24 03:25:14;;;;;;;12.73;9.13;;;;;;;19.07;100.00;101601.38;5052198;28;19921;-57
2022/08/24 03:27:43;;;;;;;12.75;9.93;;;;;;;19.03;100.00;101602.63;5052988;28;20048;-57
2022/08/24 03:30:14;;;;;;;15.15;11.10;;;;;;;18.99;100.00;101606.56;5051568;28;20049;-56
2022/08/24 03:32:43;;;;;;;13.77;9.88;;;;;;;18.93;100.00;101599.09;5053072;28;20504;-63
2022/08/24 03:35:13;;;;;;;12.93;10.63;;;;;;;19.03;100.00;101599.97;5052958;28;20053;-63
2022/08/24 03:37:41;;;;;;;15.88;11.60;;;;;;;19.04;100.00;101595.47;5053874;28;20466;-56
2022/08/24 03:40:12;;;;;;;15.10;12.20;;;;;;;18.89;100.00;101598.50;5051757;28;20411;-62
2022/08/24 03:42:50;;;;;;;16.67;13.40;;;;;;;18.91;100.00;101601.91;5052708;28;20044;-57
2022/08/24 03:45:19;;;;;;;17.58;13.93;;;;;;;18.93;100.00;101601.75;5054995;28;20033;-58
2022/08/24 03:47:47;;;;;;;16.08;13.63;;;;;;;18.91;100.00;101598.41;5055136;28;20443;-64
2022/08/24 03:50:15;;;;;;;19.23;13.80;;;;;;;18.85;100.00;101598.91;5053440;28;20078;-64
2022/08/24 03:52:43;;;;;;;20.10;14.40;;;;;;;18.83;100.00;101606.16;5052293;28;20073;-62
2022/08/24 03:55:13;;;;;;;17.10;13.40;;;;;;;18.78;100.00;101603.09;5052217;28;20053;-64
2022/08/24 03:57:41;;;;;;;19.17;14.02;;;;;;;18.82;100.00;101601.84;5054997;28;20582;-57
2022/08/24 04:00:13;;;;;;;17.85;13.38;;;;;;;18.78;100.00;101606.59;5051496;28;20056;-64
2022/08/24 04:02:43;;;;;;;18.50;13.25;;;;;;;18.79;100.00;101605.63;5051378;28;20045;-62
2022/08/24 04:05:12;;;;;;;16.23;13.10;;;;;;;18.80;100.00;101615.31;5052480;28;20048;-64
2022/08/24 04:07:40;;;;;;;18.20;14.32;;;;;;;18.74;100.00;101608.66;5052031;28;20060;-62
2022/08/24 04:10:10;;;;;;;16.17;13.52;;;;;;;18.66;100.00;101616.50;5051941;28;20392;-63
2022/08/24 04:12:39;;;;;;;20.00;14.27;;;;;;;18.67;100.00;101618.19;5050796;28;20049;-56
2022/08/24 04:15:08;;;;;;;20.38;14.88;;;;;;;18.58;100.00;101616.31;5050477;28;20135;-57
2022/08/24 04:17:36;;;;;;;18.85;14.32;;;;;;;18.66;100.00;101618.31;5053796;28;20059;-57
2022/08/24 04:20:06;;;;;;;20.08;15.15;;;;;;;18.68;100.00;101614.56;5053277;28;20135;-63
2022/08/24 04:22:35;;;;;;;18.92;16.90;;;;;;;18.65;100.00;101609.50;5054727;28;20045;-63
2022/08/24 04:25:04;;;;;;;20.58;16.50;;;;;;;18.66;100.00;101610.34;5055157;28;20052;-63
2022/08/24 04:27:37;;;;;;;21.42;16.10;;;;;;;18.63;100.00;101606.13;5054798;28;20115;-55
2022/08/24 04:30:08;;;;;;;25.88;16.55;;;;;;;18.52;100.00;101614.22;5054560;28;20099;-62
2022/08/24 04:32:36;;;;;;;23.75;16.45;;;;;;;18.41;100.00;101618.63;5052939;28;20236;-63
2022/08/24 04:35:06;;;;;;;20.15;15.75;;;;;;;18.42;100.00;101615.00;5054798;28;20036;-59
2022/08/24 04:37:34;;;;;;;22.10;16.02;;;;;;;18.46;100.00;101612.94;5054499;28;20064;-58
2022/08/24 04:40:03;;;;;;;19.25;15.18;;;;;;;18.40;100.00;101611.59;5052383;28;20056;-55
2022/08/24 04:42:32;;;;;;;19.20;14.43;;;;;;;18.40;100.00;101618.78;5054246;28;20496;-57
2022/08/24 04:45:01;;;;;;;18.90;14.65;;;;;;;18.39;100.00;101614.41;5054519;28;20400;-61
2022/08/24 04:47:30;;;;;;;22.73;15.10;;;;;;;18.47;100.00;101621.75;5054735;28;20060;-62
2022/08/24 04:49:59;;;;;;;21.05;15.95;;;;;;;18.51;100.00;101631.16;5053260;28;20913;-57
2022/08/24 04:52:28;;;;;;;18.48;14.82;;;;;;;18.42;100.00;101630.97;5051628;28;20040;-63
2022/08/24 04:54:56;;;;;;;21.85;16.33;;;;;;;18.47;100.00;101627.06;5050552;28;20512;-64
2022/08/24 04:57:24;;;;;;;20.75;13.85;;;;;;;18.55;100.00;101638.72;5051039;28;20358;-61
2022/08/24 04:59:56;;;;;;;18.75;14.38;;;;;;;18.44;100.00;101636.16;5050835;28;20831;-57
2022/08/24 05:02:24;;;;;;;23.55;15.73;;;;;;;18.39;100.00;101636.56;5053553;28;20037;-56
2022/08/24 05:04:56;;;;;;;22.58;14.73;;;;;;;18.47;100.00;101640.38;5053501;28;20056;-56
2022/08/24 05:07:24;;;;;;;31.92;15.35;;;;;;;18.49;100.00;101641.13;5052306;28;20132;-57
2022/08/24 05:09:52;;;;;;;21.52;14.35;;;;;;;18.47;100.00;101649.22;5050123;28;20053;-65
2022/08/24 05:12:20;;;;;;;23.60;15.20;;;;;;;18.54;100.00;101641.53;5048607;28;20045;-65
2022/08/24 05:14:48;;;;;;;19.75;13.75;;;;;;;18.58;100.00;101643.81;5049987;28;20048;-58
2022/08/24 05:17:17;;;;;;;23.75;13.80;;;;;;;18.56;100.00;101639.59;5053022;28;20053;-58
2022/08/24 05:19:45;;;;;;;26.45;14.50;;;;;;;18.63;100.00;101643.41;5053040;28;20526;-57
2022/08/24 05:22:14;;;;;;;30.90;14.63;;;;;;;18.62;100.00;101647.03;5052944;28;20045;-58
2022/08/24 05:24:42;;;;;;;32.25;15.05;;;;;;;18.60;100.00;101654.34;5049816;28;20049;-58
2022/08/24 05:27:10;;;;;;;28.35;15.48;;;;;;;18.58;100.00;101654.47;5050195;28;20051;-58
2022/08/24 05:29:41;;;;;;;32.25;15.88;;;;;;;18.55;100.00;101664.53;5048892;28;20055;-57
2022/08/24 05:32:09;;;;;;;23.45;16.13;;;;;;;18.60;100.00;101662.34;5049396;28;20492;-57
2022/08/24 05:34:37;;;;;;;24.40;16.95;;;;;;;18.55;100.00;101664.53;5052010;28;20041;-57
2022/08/24 05:37:05;;;;;;;20.08;16.13;;;;;;;18.69;100.00;101663.34;5052419;28;20130;-57
2022/08/24 05:39:35;;;;;;;21.35;17.48;;;;;;;18.68;100.00;101666.97;5052876;28;20048;-64
2022/08/24 05:42:03;;;;;;;21.55;17.90;;;;;;;18.71;100.00;101670.22;5052742;28;20550;-57
2022/08/24 05:44:32;;;;;;;22.23;18.48;;;;;;;18.74;100.00;101672.59;5052730;28;20079;-62
2022/08/24 05:47:01;;;;;;;21.70;17.95;;;;;;;18.80;100.00;101673.06;5051254;28;20041;-57
2022/08/24 05:49:29;;;;;;;21.10;18.67;;;;;;;18.83;100.00;101663.00;5049605;28;20454;-63
2022/08/24 05:52:01;;;;;;;20.27;17.63;;;;;;;18.88;100.00;101658.13;5049319;28;20451;-63
2022/08/24 05:54:29;;;;;;;26.05;20.65;;;;;;;18.95;100.00;101658.44;5049928;28;20045;-57
2022/08/24 05:57:03;;;;;;;22.45;20.05;;;;;;;19.05;100.00;101666.47;5050203;28;20136;-58
2022/08/24 05:59:31;;;;;;;26.15;22.10;;;;;;;19.07;100.00;101661.81;5049171;28;20135;-58
2022/08/24 06:01:59;;;;;;;23.52;21.08;;;;;;;19.18;100.00;101663.53;5047449;28;20083;-58
2022/08/24 06:04:28;;;;;;;23.35;20.58;;;;;;;19.32;100.00;101660.50;5047978;28;20044;-58
2022/08/24 06:06:58;;;;;;;25.38;22.67;;;;;;;19.30;100.00;101662.44;5049528;28;20048;-58
2022/08/24 06:09:27;;;;;;;26.23;22.33;;;;;;;19.38;100.00;101667.94;5049838;28;20060;-64
2022/08/24 06:11:54;;;;;;;28.27;20.88;;;;;;;19.45;100.00;101673.56;5050724;28;20413;-58
2022/08/24 06:14:24;;;;;;;25.80;22.40;;;;;;;19.52;100.00;101676.53;5052488;28;20045;-57
2022/08/24 06:16:54;;;;;;;26.50;22.23;;;;;;;19.61;100.00;101677.53;5051062;28;20416;-57
2022/08/24 06:19:23;;;;;;;25.48;22.70;;;;;;;19.66;100.00;101681.47;5052478;28;20124;-62
2022/08/24 06:21:53;;;;;;;27.17;22.60;;;;;;;19.72;100.00;101677.38;5052157;28;20049;-63
2022/08/24 06:27:19;;;;;;;32.90;23.35;;;;;;;19.80;100.00;101687.38;5052304;28;20053;-64
2022/08/24 06:27:22;;;;;;;25.02;22.13;;;;;;;19.90;100.00;101685.56;5048642;28;20041;-63
2022/08/24 06:29:54;;;;;;;31.75;23.27;;;;;;;20.00;100.00;101680.22;5050517;28;20041;-63
2022/08/24 06:32:22;;;;;;;25.38;22.58;;;;;;;20.10;100.00;101689.06;5052648;28;20417;-63
2022/08/24 06:34:50;;;;;;;29.92;24.38;;;;;;;20.18;100.00;101686.53;5052496;28;20052;-63
2022/08/24 06:37:18;;;;;;;29.08;25.23;;;;;;;20.27;100.00;101693.69;5052266;28;20045;-57
2022/08/24 06:39:47;;;;;;;33.17;26.05;;;;;;;20.38;100.00;101689.16;5049471;28;20044;-63
2022/08/24 06:42:23;;;;;;;32.20;24.80;;;;;;;20.52;100.00;101690.53;5048297;28;20474;-57
2022/08/24 06:44:55;;;;;;;28.90;24.77;;;;;;;20.65;100.00;101693.72;5048198;28;20499;-63
2022/08/24 06:47:23;;;;;;;31.67;26.47;;;;;;;20.76;100.00;101698.94;5049865;28;20396;-57
2022/08/24 06:49:51;;;;;;;29.92;25.25;;;;;;;20.90;100.00;101694.06;5051349;28;20418;-65
2022/08/24 06:52:19;;;;;;;30.38;27.05;;;;;;;21.03;100.00;101688.41;5051910;28;20044;-65
2022/08/24 06:54:47;;;;;;;29.10;25.88;;;;;;;21.17;100.00;101700.44;5051875;28;20103;-58
2022/08/24 06:57:16;;;;;;;33.00;27.75;;;;;;;21.27;100.00;101702.06;5051880;28;20053;-58
2022/08/24 06:59:44;;;;;;;27.05;24.17;;;;;;;21.40;100.00;101700.88;5047939;28;20049;-58
2022/08/24 07:02:15;;;;;;;28.60;23.30;;;;;;;21.58;100.00;101688.38;5049150;28;20037;-65
2022/08/24 07:04:43;;;;;;;31.77;25.20;;;;;;;21.72;100.00;101694.19;5045477;28;20110;-59
2022/08/24 07:07:11;;;;;;;27.77;23.35;;;;;;;21.87;100.00;101691.81;5049266;28;20045;-64
2022/08/24 07:09:39;;;;;;;29.45;25.63;;;;;;;22.02;100.00;101697.47;5047431;28;20069;-64
2022/08/24 07:12:08;;;;;;;26.95;24.15;;;;;;;22.19;100.00;101696.59;5048859;28;20123;-66
2022/08/24 07:14:36;;;;;;;28.25;24.20;;;;;;;22.37;100.00;101699.25;5050192;28;20049;-67
2022/08/24 07:17:04;;;;;;;21.23;18.38;;;;;;;22.55;100.00;101693.88;5051311;28;20076;-67
2022/08/24 07:19:34;;;;;;;28.60;20.55;;;;;;;22.82;100.00;101702.69;5047286;28;20037;-67
2022/08/24 07:22:02;;;;;;;23.02;19.65;;;;;;;22.93;100.00;101704.25;5045884;28;20041;-58
2022/08/24 07:24:31;;;;;;;23.55;19.25;;;;;;;23.12;100.00;101700.50;5049152;28;20083;-67
2022/08/24 07:26:59;;;;;;;24.95;21.65;;;;;;;23.27;100.00;101701.59;5049915;28;20132;-68
2022/08/24 07:29:27;;;;;;;21.75;15.63;;;;;;;23.48;100.00;101703.00;5051194;28;20567;-68
2022/08/24 07:32:15;;;;;;;19.08;15.90;;;;;;;23.75;97.56;101701.84;5048776;28;20056;-68
2022/08/24 07:34:44;;;;;;;20.42;17.20;;;;;;;24.00;95.54;101701.06;5048132;28;20041;-68
2022/08/24 07:37:13;;;;;;;18.48;16.58;;;;;;;24.17;92.94;101697.34;5049161;28;20060;-58
2022/08/24 07:39:41;;;;;;;21.95;16.38;;;;;;;24.33;91.04;101696.47;5054114;28;20060;-68
2022/08/24 07:42:09;;;;;;;19.30;15.38;;;;;;;24.54;89.16;101705.84;5055581;28;20045;-61
2022/08/24 07:44:43;;;;;;;17.00;12.60;;;;;;;24.76;88.79;101699.78;5051759;28;20045;-58
2022/08/24 07:47:11;;;;;;;17.40;13.88;;;;;;;25.01;90.80;101699.69;5052408;28;20115;-68
2022/08/24 07:50:01;;;;;;;21.45;13.52;;;;;;;25.31;89.14;101692.63;5052719;28;20045;-57
2022/08/24 07:52:32;;;;;;;18.20;13.90;;;;;;;25.58;86.90;101703.13;5051300;28;20056;-58
2022/08/24 07:55:00;;;;;;;16.88;12.70;;;;;;;25.77;83.70;101693.72;5055308;28;20496;-58
2022/08/24 07:57:28;;;;;;;15.18;10.40;;;;;;;26.03;85.62;101703.28;5055165;28;20045;-67
2022/08/24 08:00:02;;;;;;;17.02;12.70;;;;;;;26.32;82.09;101692.56;5054520;28;20106;-68
2022/08/24 08:02:32;;;;;;;16.20;11.05;;;;;;;26.49;81.63;101701.34;5052404;28;20499;-67
2022/08/24 08:05:06;;;;;;;14.82;10.30;;;;;;;26.68;79.29;101693.69;5050431;28;20048;-57
2022/08/24 08:07:34;;;;;;;15.70;12.07;;;;;;;26.80;77.25;101705.72;5053981;28;20053;-68
2022/08/24 08:10:02;;;;;;;11.40;7.38;;;;;;;26.96;79.11;101704.69;5051682;28;20045;-68
2022/08/24 08:12:30;;;;;;;12.95;9.77;;;;;;;27.04;73.48;101711.84;5052002;28;20049;-68
2022/08/24 08:14:58;;;;;;;12.55;9.10;;;;;;;27.22;70.44;101716.00;5049424;28;20069;-68
2022/08/24 08:17:26;;;;;;;14.65;9.25;;;;;;;27.35;73.08;101718.88;5052003;28;20399;-68
2022/08/24 08:19:55;;;;;;;13.30;8.98;;;;;;;27.45;72.46;101719.41;5053182;28;20064;-68
2022/08/24 08:25:10;;;;;;;9.88;6.57;;;;;;;27.70;68.77;101719.03;5051215;28;20567;-58
2022/08/24 08:27:38;;;;;;;12.82;7.72;;;;;;;27.93;68.50;101720.72;5053472;28;20550;-58
2022/08/24 08:30:07;;;;;;;11.25;5.93;;;;;;;28.19;66.60;101716.59;5053977;28;20189;-58
2022/08/24 08:32:36;;;;;;;9.70;5.25;;;;;;;28.31;66.45;101728.53;5053811;28;20041;-57
2022/08/24 08:35:04;;;;;;;14.98;6.65;;;;;;;28.44;64.23;101722.38;5051764;28;20056;-66
2022/08/24 08:37:34;;;;;;;10.73;5.85;;;;;;;28.64;64.17;101723.38;5051649;28;20092;-57
2022/08/24 08:40:12;;;;;;;11.45;6.15;;;;;;;28.79;62.32;101730.53;5051121;28;20503;-58
2022/08/24 08:42:56;;;;;;;11.23;5.40;;;;;;;28.99;62.63;101719.81;5050060;28;20147;-58
2022/08/24 08:45:35;;;;;;;11.05;5.40;;;;;;;29.15;62.33;101724.88;5048813;28;20041;-67
2022/08/24 08:48:40;;;;;;;9.15;5.00;;;;;;;29.37;61.36;101719.34;5050442;28;20063;-67
2022/08/24 08:51:39;;;;;;;11.45;6.40;;;;;;;29.34;58.58;101715.19;5051109;28;20045;-57
2022/08/24 08:54:33;;;;;;;10.15;4.38;;;;;;;29.61;59.76;101715.22;5051315;28;20040;-58
2022/08/24 08:57:18;;;;;;;6.32;2.83;;;;;;;29.92;56.50;101718.44;5041084;28;20049;-58
2022/08/24 09:00:09;;;;;;;8.23;4.07;;;;;;;30.22;56.67;101712.56;5049094;28;20053;-58
2022/08/24 09:03:10;;;;;;;11.38;4.28;;;;;;;30.38;55.94;101711.28;5050416;28;20093;-67
2022/08/24 09:06:18;;;;;;;6.95;3.83;;;;;;;30.62;54.72;101715.22;5050395;28;20053;-66
2022/08/24 09:09:06;;;;;;;5.40;2.35;;;;;;;30.89;52.99;101713.25;5051616;28;20053;-66
2022/08/24 09:11:51;;;;;;;5.47;2.28;;;;;;;31.03;50.15;101719.50;5053008;28;20381;-66
2022/08/24 09:14:48;;;;;;;6.28;2.20;;;;;;;31.26;49.37;101718.13;5050846;28;20516;-66
2022/08/24 09:17:33;;;;;;;4.40;2.42;;;;;;;31.42;50.19;101714.09;5008060;28;20583;-65
2022/08/24 09:20:18;;;;;;;4.35;2.05;;;;;;;31.47;49.97;101715.09;5049798;28;20393;-64
2022/08/24 09:22:48;;;;;;;6.18;2.17;;;;;;;31.57;48.64;101709.16;5050702;28;20041;-58
2022/08/24 09:25:25;;;;;;;8.85;2.17;;;;;;;31.87;49.20;101711.28;5050808;28;20041;-58
2022/08/24 09:28:12;;;;;;;7.57;1.75;;;;;;;32.07;48.85;101712.97;5050693;28;20057;-66
2022/08/24 09:31:04;;;;;;;5.57;2.83;;;;;;;32.05;47.17;101713.22;5053048;28;20414;-65
2022/08/24 09:33:43;;;;;;;5.75;2.55;;;;;;;32.19;46.81;101711.22;5052940;28;20488;-58
2022/08/24 09:36:18;;;;;;;5.30;2.30;;;;;;;32.43;46.99;101709.53;5053024;28;20569;-65
2022/08/24 09:39:06;;;;;;;4.22;2.05;;;;;;;32.70;44.86;101709.28;5050593;28;20052;-58
2022/08/24 09:42:16;;;;;;;4.57;2.00;;;;;;;32.92;45.97;101703.34;5050724;28;20045;-64
2022/08/24 09:45:14;;;;;;;6.95;2.40;;;;;;;33.00;44.06;101711.22;5042138;28;20064;-65
2022/08/24 09:48:12;;;;;;;5.43;1.85;;;;;;;32.97;44.00;101704.31;5050943;28;20085;-58
2022/08/24 09:51:31;;;;;;;5.65;2.17;;;;;;;33.23;44.57;101712.34;5041439;28;20067;-62
2022/08/24 09:54:28;;;;;;;6.95;2.13;;;;;;;33.24;43.05;101716.75;5050235;28;20045;-58
2022/08/24 09:57:12;;;;;;;5.13;2.10;;;;;;;33.31;42.40;101712.91;5046884;28;20099;-57
2022/08/24 09:59:58;;;;;;;6.00;2.25;;;;;;;33.51;42.41;101711.78;5048591;28;20671;-64
2022/08/24 10:02:44;;;;;;;5.85;2.00;;;;;;;33.38;41.25;101711.97;5049059;28;20061;-63
2022/08/24 10:05:26;;;;;;;5.47;2.15;;;;;;;33.51;40.42;101707.16;5049941;28;20384;-62
2022/08/24 10:08:04;;;;;;;3.78;1.80;;;;;;;33.53;42.66;101705.03;5050184;28;20064;-64
2022/08/24 10:10:47;;;;;;;6.25;2.00;;;;;;;33.76;41.54;101702.56;5050020;28;20155;-63
2022/08/24 10:13:25;;;;;;;4.32;1.73;;;;;;;34.03;41.06;101705.72;5051517;28;20048;-57
2022/08/24 10:16:07;;;;;;;4.80;1.60;;;;;;;34.21;39.39;101696.59;5048456;28;20099;-57
2022/08/24 10:18:50;;;;;;;2.95;1.40;;;;;;;33.98;38.84;101700.16;5049836;28;20047;-57
2022/08/24 10:21:34;;;;;;;4.65;1.50;;;;;;;34.26;39.36;101690.41;5049773;28;20053;-58
2022/08/24 10:24:15;;;;;;;4.95;1.40;;;;;;;34.53;38.23;101691.56;5050917;28;20480;-64
2022/08/24 10:27:03;;;;;;;2.20;1.35;;;;;;;34.84;39.21;101681.31;5052203;28;20453;-64
2022/08/24 10:29:50;;;;;;;2.65;1.13;;;;;;;34.99;35.98;101693.63;5052708;28;20355;-58
2022/08/24 10:32:38;;;;;;;3.33;1.33;;;;;;;34.90;35.80;101686.88;5050909;28;20531;-62
2022/08/24 10:35:14;;;;;;;2.00;1.05;;;;;;;35.17;35.80;101678.91;5049686;28;20047;-64
2022/08/24 10:42:05;;;;;;;2.50;1.35;;;;;;;34.83;35.63;101695.22;5029340;28;20056;-57
2022/08/24 10:44:48;;;;;;;4.20;1.02;;;;;;;34.71;35.35;101687.00;4968398;28;20530;-63
2022/08/24 10:47:22;;;;;;;3.20;1.45;;;;;;;34.81;35.89;101678.19;5042029;28;20061;-57
2022/08/24 10:50:23;;;;;;;5.00;1.38;;;;;;;34.12;35.89;101687.09;5052356;28;20339;-63
2022/08/24 10:53:27;;;;;;;3.17;1.40;;;;;;;34.28;36.91;101683.63;5051944;28;20110;-64
2022/08/24 10:56:08;;;;;;;3.55;1.40;;;;;;;34.39;35.88;101673.81;5049017;28;20507;-63
2022/08/24 10:58:51;;;;;;;3.83;1.17;;;;;;;34.73;37.09;101671.22;5050287;28;20059;-57
2022/08/24 11:01:25;;;;;;;3.65;1.40;;;;;;;35.24;35.86;101674.13;5047876;28;20060;-58
2022/08/24 11:04:00;;;;;;;4.65;1.30;;;;;;;35.68;34.65;101670.78;5049826;28;20128;-63
2022/08/24 11:06:31;;;;;;;3.17;1.27;;;;;;;35.27;34.80;101670.88;5048588;28;20048;-58
2022/08/24 11:09:05;;;;;;;3.92;1.40;;;;;;;35.06;37.08;101671.63;5051990;28;20047;-64
2022/08/24 11:11:36;;;;;;;4.22;1.60;;;;;;;35.31;34.28;101668.50;5052212;28;20396;-58
2022/08/24 11:14:22;;;;;;;3.33;1.50;;;;;;;35.57;35.02;101671.69;5056129;28;20049;-58
2022/08/24 11:16:53;;;;;;;4.57;1.58;;;;;;;35.47;34.22;101670.44;5055932;28;20132;-63
2022/08/24 11:19:32;;;;;;;3.40;1.52;;;;;;;35.68;33.61;101666.16;5053698;28;20049;-58
2022/08/24 11:22:03;;;;;;;3.67;1.60;;;;;;;36.02;33.85;101665.31;5054219;28;20064;-62
2022/08/24 11:24:42;;;;;;;3.08;1.40;;;;;;;35.78;34.36;101665.47;5053617;28;20106;-61
2022/08/24 11:27:24;;;;;;;3.90;1.60;;;;;;;35.85;34.35;101662.59;5053245;28;20534;-63
2022/08/24 11:30:00;;;;;;;3.08;1.50;;;;;;;35.53;33.40;101671.34;5055856;28;20052;-60
2022/08/24 11:32:36;;;;;;;4.18;1.42;;;;;;;35.49;33.81;101672.94;5055813;28;20041;-64
2022/08/24 11:35:14;;;;;;;4.15;1.60;;;;;;;35.48;33.60;101674.84;5054130;28;20123;-63
2022/08/24 11:37:43;;;;;;;4.72;1.80;;;;;;;35.60;33.70;101673.94;5052964;28;20049;-58
2022/08/24 11:40:15;;;;;;;4.95;1.90;;;;;;;35.40;33.59;101667.06;5055668;28;20419;-62
2022/08/24 11:43:02;;;;;;;6.60;1.65;;;;;;;35.78;33.25;101659.16;5055693;28;20051;-62
2022/08/24 11:45:40;;;;;;;5.13;1.50;;;;;;;36.50;34.17;101666.53;5053873;28;20049;-64
2022/08/24 11:48:20;;;;;;;3.33;1.60;;;;;;;36.91;32.05;101666.22;5055363;28;20053;-58
2022/08/24 11:51:01;;;;;;;3.85;1.38;;;;;;;36.20;32.56;101655.97;5054977;28;20461;-58